Time;durP1;ratioP1;P1;durP2;ratioP2;P2;SDS_P1;SDS_P2;PMS_P1;PMS_P2;Temp;Humidity;BMP_temperature;BMP_pressure;BME280_temperature;BME280_humidity;BME280_pressure;Samples;Min_cycle;Max_cycle;Signal;HPM_P1;HPM_P2
2023/05/19 00:00:51;;;;;;;1.60;1.50;;;;;;;18.54;56.77;97807.16;4865467;29;20195;-88
2023/05/19 00:03:22;;;;;;;1.90;1.60;;;;;;;19.18;56.58;97900.91;4881514;29;20172;-89
2023/05/19 00:05:57;;;;;;;2.37;1.90;;;;;;;18.96;56.65;97867.63;4883263;29;20218;-88
2023/05/19 00:08:31;;;;;;;1.73;1.63;;;;;;;18.64;56.47;97822.91;4859806;29;20171;-88
2023/05/19 00:11:00;;;;;;;1.67;1.57;;;;;;;18.72;56.58;97831.78;4888678;29;20159;-88
2023/05/19 00:13:49;;;;;;;1.93;1.70;;;;;;;18.63;56.61;97817.75;4906275;29;20190;-88
2023/05/19 00:16:24;;;;;;;2.07;1.70;;;;;;;19.74;56.59;98001.16;4908140;29;20186;-88
2023/05/19 00:18:58;;;;;;;2.40;1.80;;;;;;;18.73;56.72;97832.63;4907142;29;20170;-88
2023/05/19 00:21:40;;;;;;;1.80;1.40;;;;;;;18.42;56.44;97773.53;4924882;29;20222;-89
2023/05/19 00:24:17;;;;;;;1.70;1.60;;;;;;;19.58;56.68;97961.41;4888118;29;20190;-88
2023/05/19 00:26:50;;;;;;;1.50;1.40;;;;;;;18.55;56.91;97788.53;4911004;29;20198;-88
2023/05/19 00:29:20;;;;;;;1.47;1.37;;;;;;;18.66;56.56;97812.81;4897308;29;20174;-89
2023/05/19 00:31:48;;;;;;;1.70;1.60;;;;;;;18.93;56.57;97858.19;4911568;29;20166;-88
2023/05/19 00:34:17;;;;;;;1.47;1.37;;;;;;;18.60;56.71;97805.78;4926314;29;20179;-89
2023/05/19 00:37:00;;;;;;;1.63;1.53;;;;;;;18.48;56.72;97782.31;4912031;29;20202;-88
2023/05/19 00:39:40;;;;;;;2.00;1.80;;;;;;;19.73;57.24;97992.66;4913248;29;20175;-89
2023/05/19 00:42:15;;;;;;;1.77;1.67;;;;;;;18.58;56.63;97796.31;4926161;29;20225;-89
2023/05/19 00:44:45;;;;;;;1.50;1.40;;;;;;;18.78;56.79;97829.50;4897483;29;20186;-88
2023/05/19 00:47:16;;;;;;;1.50;1.40;;;;;;;18.45;57.00;97771.13;4895398;29;20191;-88
2023/05/19 00:49:45;;;;;;;1.87;1.70;;;;;;;18.49;56.89;97780.63;4916919;29;20187;-88
2023/05/19 00:52:17;;;;;;;1.80;1.70;;;;;;;19.72;56.74;97982.41;4926500;29;20223;-88
2023/05/19 00:54:56;;;;;;;1.97;1.80;;;;;;;19.55;56.62;97956.16;4910768;29;20199;-89
2023/05/19 00:57:28;;;;;;;2.03;1.80;;;;;;;18.68;56.68;97812.06;4926569;29;20190;-89
2023/05/19 01:00:00;;;;;;;1.70;1.60;;;;;;;18.85;56.71;97828.09;4895596;29;20190;-88
2023/05/19 01:02:38;;;;;;;1.80;1.70;;;;;;;18.99;56.69;97855.94;4905649;29;20258;-88
2023/05/19 01:05:12;;;;;;;1.90;1.80;;;;;;;18.67;56.51;97796.72;4925892;29;20171;-89
2023/05/19 01:07:59;;;;;;;1.73;1.63;;;;;;;18.78;56.51;97824.41;4925920;29;20191;-88
2023/05/19 01:10:31;;;;;;;1.90;1.80;;;;;;;19.30;56.67;97907.44;4911721;29;20167;-88
2023/05/19 01:13:03;;;;;;;2.00;1.70;;;;;;;18.57;56.75;97772.53;4911040;29;20185;-88
2023/05/19 01:15:56;;;;;;;1.70;1.60;;;;;;;19.38;56.72;97906.13;4911437;29;20189;-88
2023/05/19 01:19:00;;;;;;;1.83;1.60;;;;;;;19.70;56.90;97958.50;4912326;29;20189;-88
2023/05/19 01:21:54;;;;;;;1.50;1.40;;;;;;;18.40;56.71;97748.00;4913212;29;20194;-89
2023/05/19 01:24:39;;;;;;;1.70;1.60;;;;;;;19.72;57.05;97967.09;4912762;29;20190;-89
2023/05/19 01:27:47;;;;;;;1.80;1.70;;;;;;;18.70;56.97;97796.84;4925749;29;20231;-88
2023/05/19 01:30:29;;;;;;;1.80;1.70;;;;;;;18.75;56.93;97803.91;4845897;29;20212;-88
2023/05/19 01:33:03;;;;;;;1.40;1.30;;;;;;;18.59;56.96;97778.56;4905556;29;20242;-89
2023/05/19 01:36:20;;;;;;;1.60;1.50;;;;;;;18.57;56.74;97767.44;4918116;29;20225;-89
2023/05/19 01:40:04;;;;;;;2.40;2.00;;;;;;;19.72;57.10;97957.75;4875391;29;20238;-89
2023/05/19 01:51:33;;;;;;;1.80;1.70;;;;;;;19.72;57.07;97960.28;4869302;29;20153;-90
2023/05/19 05:31:23;;;;;;;4.20;1.58;;;;;;;19.60;57.36;97879.88;5141413;23;20443;-92
2023/05/19 05:33:50;;;;;;;1.80;1.70;;;;;;;19.74;57.16;97904.25;4888578;29;20202;-92
2023/05/19 05:36:16;;;;;;;1.73;1.60;;;;;;;19.57;57.53;97869.56;4884406;29;20231;-91
2023/05/19 05:38:43;;;;;;;11.17;2.00;;;;;;;19.74;56.64;97897.50;4886616;29;20241;-91
2023/05/19 05:41:09;;;;;;;5.43;2.03;;;;;;;19.76;56.78;97898.44;4867304;29;20207;-91
2023/05/19 05:43:36;;;;;;;14.53;2.43;;;;;;;19.82;56.56;97913.13;4871320;29;20264;-93
2023/05/19 05:46:03;;;;;;;16.73;2.93;;;;;;;19.65;55.93;97876.69;4885840;29;20226;-92
2023/05/19 05:48:30;;;;;;;19.17;3.10;;;;;;;19.83;56.02;97899.53;4886830;29;20292;-93
2023/05/19 05:50:57;;;;;;;22.33;3.17;;;;;;;19.68;56.17;97876.84;4882559;29;20271;-93
2023/05/19 05:53:24;;;;;;;12.83;3.07;;;;;;;19.72;55.08;97880.41;4888457;29;20214;-93
2023/05/19 05:55:50;;;;;;;21.60;3.20;;;;;;;19.80;54.86;97894.31;4874116;29;20602;-93
2023/05/19 05:58:17;;;;;;;13.70;3.30;;;;;;;20.02;54.94;97932.69;4889614;29;20569;-93
2023/05/19 06:00:44;;;;;;;13.40;3.50;;;;;;;19.73;54.44;97879.56;4884093;29;20213;-93
2023/05/19 06:03:12;;;;;;;23.30;3.73;;;;;;;19.86;54.46;97899.66;4892545;29;20230;-94
2023/05/19 06:05:39;;;;;;;16.67;3.93;;;;;;;19.91;54.26;97906.72;4869442;29;20294;-93
2023/05/19 06:08:05;;;;;;;28.73;3.90;;;;;;;20.01;53.88;97910.50;4868498;29;20207;-93
2023/05/19 06:10:34;;;;;;;9.93;3.77;;;;;;;19.98;54.12;97912.94;4867832;29;20207;-92
2023/05/19 06:13:01;;;;;;;13.07;3.63;;;;;;;19.93;54.33;97894.88;4883803;29;20214;-93
2023/05/19 06:15:27;;;;;;;13.23;4.00;;;;;;;20.10;54.14;97913.44;4861344;29;20226;-91
2023/05/19 06:17:54;;;;;;;14.47;3.83;;;;;;;19.97;54.31;97890.78;4904051;29;20209;-92
2023/05/19 06:20:21;;;;;;;7.77;3.43;;;;;;;20.08;54.47;97902.31;4866809;29;20207;-93
2023/05/19 06:22:48;;;;;;;8.33;3.20;;;;;;;20.08;54.79;97902.31;4889075;29;20296;-93
2023/05/19 06:25:15;;;;;;;9.70;3.13;;;;;;;20.11;54.93;97907.53;4868023;29;20730;-92
2023/05/19 06:27:42;;;;;;;7.87;3.47;;;;;;;20.04;54.99;97882.56;4894628;29;20719;-93
2023/05/19 06:30:09;;;;;;;11.63;3.47;;;;;;;20.11;54.95;97897.34;4886415;29;20746;-92
2023/05/19 06:32:35;;;;;;;12.57;3.63;;;;;;;20.03;55.20;97883.38;4893815;29;20230;-94
2023/05/19 06:35:02;;;;;;;5.17;2.90;;;;;;;19.96;55.02;97877.16;4895780;29;20230;-93
2023/05/19 06:37:29;;;;;;;8.63;3.50;;;;;;;20.07;54.91;97892.03;4872152;29;20210;-93
2023/05/19 06:39:56;;;;;;;4.67;3.00;;;;;;;20.02;54.45;97886.75;4884112;29;20206;-92
2023/05/19 06:42:24;;;;;;;8.43;3.30;;;;;;;20.02;54.90;97890.16;4883917;29;20241;-93
2023/05/19 06:44:51;;;;;;;8.13;3.13;;;;;;;19.86;55.06;97869.94;4897096;29;20225;-92
2023/05/19 06:47:18;;;;;;;15.90;3.20;;;;;;;20.08;55.13;97902.31;4911129;29;20249;-93
2023/05/19 06:49:44;;;;;;;7.33;3.07;;;;;;;20.17;55.13;97917.16;4879174;29;20583;-93
2023/05/19 06:52:11;;;;;;;4.67;2.90;;;;;;;20.14;55.28;97912.81;4892187;29;20206;-93
2023/05/19 06:54:38;;;;;;;9.47;3.27;;;;;;;20.09;54.83;97901.50;4868459;29;20223;-94
2023/05/19 06:57:04;;;;;;;9.80;2.77;;;;;;;20.18;54.56;97924.00;4891264;29;20195;-94
2023/05/19 06:59:31;;;;;;;6.20;3.40;;;;;;;19.98;54.79;97889.97;4869923;29;20202;-94
2023/05/19 07:01:58;;;;;;;7.67;3.13;;;;;;;20.16;54.79;97921.38;4879776;29;20214;-93
2023/05/19 07:04:25;;;;;;;13.40;3.57;;;;;;;20.06;54.84;97897.94;4887874;29;20206;-93
2023/05/19 07:06:52;;;;;;;11.27;3.17;;;;;;;20.22;54.75;97933.53;4896217;29;20202;-94
2023/05/19 07:09:18;;;;;;;10.17;3.73;;;;;;;20.13;54.65;97916.16;4875453;29;20266;-94
2023/05/19 07:11:45;;;;;;;8.63;3.53;;;;;;;20.05;54.62;97898.75;4897486;29;20778;-94
2023/05/19 07:14:12;;;;;;;9.57;3.13;;;;;;;19.95;54.39;97879.66;4888078;29;20206;-94
2023/05/19 07:16:39;;;;;;;15.93;3.47;;;;;;;19.70;54.56;97841.19;4875452;29;20209;-94
2023/05/19 07:19:05;;;;;;;10.20;3.53;;;;;;;20.04;54.48;97891.94;4904745;29;20269;-94
2023/05/19 07:21:32;;;;;;;6.93;3.13;;;;;;;20.16;54.28;97915.41;4892501;29;20705;-95
2023/05/19 07:23:59;;;;;;;6.63;3.50;;;;;;;20.05;54.24;97892.00;4887082;29;20202;-93
2023/05/19 07:26:26;;;;;;;14.07;3.87;;;;;;;20.05;55.13;97891.09;4896003;29;20261;-93
2023/05/19 07:28:52;;;;;;;10.13;3.53;;;;;;;20.16;54.47;97900.09;4874286;29;20210;-94
2023/05/19 07:31:19;;;;;;;11.60;3.73;;;;;;;20.07;54.63;97892.91;4880721;29;20231;-94
2023/05/19 07:33:46;;;;;;;7.50;3.23;;;;;;;20.15;54.83;97898.34;4879893;29;20205;-93
2023/05/19 07:36:12;;;;;;;8.70;3.17;;;;;;;20.13;54.44;97892.34;4882529;29;20246;-93
2023/05/19 07:38:39;;;;;;;6.63;3.20;;;;;;;20.10;54.37;97877.72;4882216;29;20199;-94
2023/05/19 07:41:05;;;;;;;5.50;3.40;;;;;;;20.25;54.52;97901.31;4904553;29;20205;-93
2023/05/19 07:43:32;;;;;;;9.53;3.47;;;;;;;20.32;54.72;97917.78;4907370;23;20229;-35
2023/05/19 07:45:59;;;;;;;8.10;3.17;;;;;;;20.30;54.47;97915.16;4900365;29;20222;-29
2023/05/19 07:48:26;;;;;;;4.67;3.37;;;;;;;20.31;54.63;97913.50;4899316;29;20215;-30
2023/05/19 07:50:53;;;;;;;7.13;3.27;;;;;;;20.30;54.43;97907.50;4907315;29;20209;-28
2023/05/19 07:53:19;;;;;;;4.97;2.80;;;;;;;20.30;54.66;97907.50;4903770;29;20525;-28
2023/05/19 07:55:46;;;;;;;6.47;3.30;;;;;;;20.31;54.52;97910.94;4901468;29;20265;-30
2023/05/19 07:58:13;;;;;;;5.03;3.00;;;;;;;20.17;54.80;97882.31;4908361;29;20719;-28
2023/05/19 08:00:41;;;;;;;6.73;3.10;;;;;;;20.32;54.64;97910.13;4914698;29;20229;-26
2023/05/19 08:03:08;;;;;;;7.63;3.20;;;;;;;20.32;54.64;97918.66;4908207;29;20229;-42
2023/05/19 08:05:35;;;;;;;5.87;2.57;;;;;;;20.34;54.33;97911.06;4901885;29;20230;-27
2023/05/19 08:08:02;;;;;;;6.27;2.80;;;;;;;20.35;54.56;97915.34;4902587;29;20209;-27
2023/05/19 08:10:29;;;;;;;3.27;2.70;;;;;;;20.35;54.79;97903.47;4909068;29;20627;-31
2023/05/19 08:12:55;;;;;;;4.30;2.83;;;;;;;20.36;54.90;97915.41;4905692;29;20254;-29
2023/05/19 08:15:22;;;;;;;7.50;3.70;;;;;;;20.36;53.47;97915.41;4907150;29;20277;-27
2023/05/19 08:17:49;;;;;;;5.83;3.87;;;;;;;20.36;51.75;97907.75;4905998;29;20206;-27
2023/05/19 08:20:15;;;;;;;8.87;3.70;;;;;;;20.36;51.48;97904.31;4901777;29;20249;-29
2023/05/19 08:22:42;;;;;;;8.90;4.03;;;;;;;20.38;51.69;97912.91;4901707;29;20282;-28
2023/05/19 08:25:09;;;;;;;8.47;3.97;;;;;;;20.38;52.16;97918.91;4902576;29;20260;-28
2023/05/19 08:27:35;;;;;;;11.63;3.93;;;;;;;20.37;52.42;97914.56;4903597;29;20302;-44
2023/05/19 08:30:02;;;;;;;10.77;4.10;;;;;;;20.36;51.88;97915.41;4904641;29;20201;-29
2023/05/19 08:32:29;;;;;;;10.90;3.87;;;;;;;20.36;52.22;97919.63;4907691;29;20286;-33
2023/05/19 08:34:55;;;;;;;5.87;3.10;;;;;;;20.35;53.47;97912.78;4909670;29;20239;-28
2023/05/19 08:37:22;;;;;;;8.07;3.50;;;;;;;20.34;54.00;97911.91;4907091;29;20253;-31
2023/05/19 08:39:48;;;;;;;7.30;2.93;;;;;;;20.34;53.18;97911.06;4906277;29;20206;-40
2023/05/19 08:42:15;;;;;;;5.20;2.83;;;;;;;20.35;53.90;97910.25;4904277;29;20217;-28
2023/05/19 08:44:42;;;;;;;4.50;2.90;;;;;;;20.33;53.50;97901.63;4901662;29;20230;-27
2023/05/19 08:47:11;;;;;;;7.20;2.90;;;;;;;20.23;53.55;97890.22;4906133;29;20712;-28
2023/05/19 08:49:45;;;;;;;7.23;3.30;;;;;;;20.32;53.44;97903.34;4905427;29;20206;-28
2023/05/19 08:52:44;;;;;;;10.13;4.00;;;;;;;20.18;53.26;97878.94;4907606;29;20255;-28
2023/05/19 08:55:32;;;;;;;10.03;3.63;;;;;;;20.31;51.97;97904.13;4896272;29;20776;-28
2023/05/19 08:58:00;;;;;;;10.03;4.10;;;;;;;20.30;51.48;97907.50;4900149;29;20586;-28
2023/05/19 09:00:27;;;;;;;11.27;4.30;;;;;;;20.29;51.58;97890.47;4909782;29;20206;-27
2023/05/19 09:02:54;;;;;;;10.17;3.90;;;;;;;20.28;51.42;97898.06;4882838;29;20236;-28
2023/05/19 09:05:37;;;;;;;6.23;3.70;;;;;;;20.27;52.02;97898.84;4899050;29;20222;-27
2023/05/19 09:08:04;;;;;;;7.33;3.40;;;;;;;20.13;52.67;97867.66;4897429;29;20677;-35
2023/05/19 09:10:30;;;;;;;7.03;3.60;;;;;;;20.26;53.00;97887.78;4894415;29;20206;-27
2023/05/19 09:12:57;;;;;;;5.43;3.67;;;;;;;20.22;53.25;97878.25;4906569;29;21299;-28
2023/05/19 09:15:25;;;;;;;7.13;3.73;;;;;;;20.27;53.43;97889.50;4905412;29;20233;-32
2023/05/19 09:18:07;;;;;;;7.20;3.77;;;;;;;20.27;53.65;97888.63;4912713;29;20265;-32
2023/05/19 09:20:41;;;;;;;5.77;3.67;;;;;;;20.25;53.90;97886.00;4905414;29;20206;-40
2023/05/19 09:23:15;;;;;;;4.90;3.40;;;;;;;20.26;53.94;97881.78;4908123;29;20280;-32
2023/05/19 09:25:49;;;;;;;7.20;3.90;;;;;;;20.27;53.80;97889.50;4906343;29;20274;-28
2023/05/19 09:28:31;;;;;;;5.03;3.50;;;;;;;20.28;54.10;97890.41;4903456;29;20210;-28
2023/05/19 09:31:01;;;;;;;10.13;3.73;;;;;;;20.28;54.11;97885.28;4907829;29;20265;-33
2023/05/19 09:33:28;;;;;;;7.67;3.80;;;;;;;20.29;56.25;97885.34;4902889;29;20301;-31
2023/05/19 09:35:55;;;;;;;6.70;3.27;;;;;;;20.30;55.92;97887.09;4904771;29;20230;-28
2023/05/19 09:38:25;;;;;;;5.60;3.60;;;;;;;20.27;53.18;97878.41;4898094;29;20199;-32
2023/05/19 09:40:55;;;;;;;8.70;3.50;;;;;;;20.24;52.55;97885.97;4900864;29;20198;-28
2023/05/19 09:43:21;;;;;;;9.93;3.97;;;;;;;20.21;51.61;97883.28;4902976;29;20764;-29
2023/05/19 09:45:53;;;;;;;7.67;3.60;;;;;;;20.18;51.09;97884.03;4901738;29;20283;-29
2023/05/19 09:48:20;;;;;;;7.47;3.67;;;;;;;20.16;51.01;97866.94;4907307;29;20260;-28
2023/05/19 09:50:48;;;;;;;5.87;3.70;;;;;;;20.14;50.19;97861.78;4902265;29;20248;-29
2023/05/19 09:53:15;;;;;;;8.83;3.70;;;;;;;20.11;49.80;97858.19;4898934;29;20199;-28
2023/05/19 09:55:41;;;;;;;5.77;3.63;;;;;;;20.08;49.60;97871.69;4881950;29;20226;-32
2023/05/19 09:58:08;;;;;;;4.40;3.07;;;;;;;20.05;49.29;97870.69;4889693;29;20211;-26
2023/05/19 10:00:38;;;;;;;7.10;3.30;;;;;;;20.02;49.70;97869.75;4894829;29;20199;-32
2023/05/19 10:03:04;;;;;;;7.07;3.83;;;;;;;20.01;48.97;97863.75;4897036;29;20277;-29
2023/05/19 10:05:31;;;;;;;5.13;3.37;;;;;;;19.96;48.84;97863.56;4885683;29;20748;-27
2023/05/19 10:07:58;;;;;;;4.93;2.97;;;;;;;19.79;48.63;97842.47;4896376;29;20214;-37
2023/05/19 10:10:25;;;;;;;8.90;3.50;;;;;;;19.89;49.32;97859.88;4886049;29;20230;-28
2023/05/19 10:12:51;;;;;;;5.17;3.30;;;;;;;19.89;49.64;97856.44;4901914;29;20209;-31
2023/05/19 10:15:19;;;;;;;10.20;3.13;;;;;;;19.86;49.63;97853.75;4885117;29;20249;-26
2023/05/19 10:17:55;;;;;;;5.63;3.80;;;;;;;19.83;49.87;97845.97;4898910;29;20689;-28
2023/05/19 10:20:22;;;;;;;8.33;3.70;;;;;;;19.82;50.13;97851.91;4903396;29;20688;-43
2023/05/19 10:22:49;;;;;;;5.30;3.40;;;;;;;19.79;49.84;97846.69;4899339;29;20257;-40
2023/05/19 10:25:17;;;;;;;5.23;3.73;;;;;;;19.77;49.91;97838.09;4906951;29;20247;-30
2023/05/19 10:27:49;;;;;;;6.50;3.30;;;;;;;19.75;49.99;97840.56;4897286;29;20207;-30
2023/05/19 10:30:24;;;;;;;5.80;3.57;;;;;;;19.70;50.34;97841.19;4913640;29;20627;-31
2023/05/19 10:32:50;;;;;;;7.63;4.03;;;;;;;19.71;50.25;97836.16;4906873;29;20257;-26
2023/05/19 10:35:28;;;;;;;5.93;3.67;;;;;;;19.71;50.05;97841.25;4908413;29;20237;-27
2023/05/19 10:38:20;;;;;;;4.50;3.50;;;;;;;19.70;50.36;97836.97;4906961;29;20298;-28
2023/05/19 10:40:52;;;;;;;4.03;3.37;;;;;;;19.71;50.31;97832.72;4900184;29;20585;-28
2023/05/19 10:43:41;;;;;;;7.40;3.60;;;;;;;19.70;50.41;97836.09;4903984;29;20617;-28
2023/05/19 10:46:08;;;;;;;6.77;4.03;;;;;;;19.70;50.54;97825.91;4887638;29;20222;-28
2023/05/19 10:48:37;;;;;;;6.27;3.80;;;;;;;19.68;50.42;97830.06;4906287;29;20224;-27
2023/05/19 10:51:04;;;;;;;8.10;3.57;;;;;;;19.68;50.72;97832.59;4897333;29;20206;-27
2023/05/19 10:53:31;;;;;;;8.17;3.80;;;;;;;19.67;50.42;97830.88;4898429;29;20202;-38
2023/05/19 10:56:03;;;;;;;7.47;3.60;;;;;;;19.52;50.57;97810.72;4901529;29;20234;-28
2023/05/19 10:58:44;;;;;;;8.57;3.60;;;;;;;19.65;50.66;97835.91;4910170;29;20264;-27
2023/05/19 11:01:18;;;;;;;5.37;3.33;;;;;;;19.65;50.84;97828.25;4904715;29;20202;-26
2023/05/19 11:03:52;;;;;;;6.93;4.10;;;;;;;19.66;51.25;97831.69;4902185;29;20270;-33
2023/05/19 11:06:35;;;;;;;6.13;3.77;;;;;;;19.65;50.56;97835.91;4898555;29;20232;-34
2023/05/19 11:09:12;;;;;;;8.07;3.80;;;;;;;19.67;50.93;97833.41;4906070;29;20205;-33
2023/05/19 11:11:43;;;;;;;3.90;3.43;;;;;;;19.67;51.34;97828.31;4901537;29;20237;-27
2023/05/19 11:14:11;;;;;;;7.40;3.60;;;;;;;19.68;51.85;97824.94;4891209;29;20257;-29
2023/05/19 11:16:38;;;;;;;8.00;4.10;;;;;;;19.68;51.48;97817.31;4898467;29;20622;-29
2023/05/19 11:19:05;;;;;;;6.10;3.93;;;;;;;19.69;51.59;97826.72;4890280;29;20233;-27
2023/05/19 11:22:07;;;;;;;9.20;3.90;;;;;;;19.71;50.85;97818.31;4908394;29;20217;-34
2023/05/19 11:24:51;;;;;;;6.80;3.67;;;;;;;19.73;51.38;97814.16;4888838;29;20221;-33
2023/05/19 11:27:24;;;;;;;6.23;3.73;;;;;;;19.71;51.19;97818.31;4897878;29;20202;-27
2023/05/19 11:29:51;;;;;;;7.73;3.90;;;;;;;19.73;50.92;97820.91;4900570;29;20242;-28
2023/05/19 11:32:19;;;;;;;7.50;4.20;;;;;;;19.73;50.98;97811.59;4906801;29;20617;-28
2023/05/19 11:34:47;;;;;;;10.63;4.50;;;;;;;19.75;51.15;97821.88;4895085;29;20258;-27
2023/05/19 11:37:13;;;;;;;5.50;3.87;;;;;;;19.74;51.56;97812.47;4903526;29;20202;-28
2023/05/19 11:39:40;;;;;;;4.37;3.57;;;;;;;19.72;51.09;97807.28;4890627;29;20230;-27
2023/05/19 11:42:10;;;;;;;7.07;4.20;;;;;;;19.71;51.54;97810.66;4892510;29;20206;-34
2023/05/19 11:44:40;;;;;;;8.10;3.67;;;;;;;19.70;51.67;97810.59;4900270;29;20291;-27
2023/05/19 11:47:07;;;;;;;6.60;3.50;;;;;;;19.68;50.91;97809.66;4902878;23;20213;-31
2023/05/19 11:49:34;;;;;;;5.83;3.13;;;;;;;19.67;51.16;97797.72;4889197;29;20213;-32
2023/05/19 11:52:01;;;;;;;7.10;3.73;;;;;;;19.70;51.42;97796.19;4880560;29;20225;-32
2023/05/19 11:54:32;;;;;;;6.93;3.67;;;;;;;19.69;51.48;97804.63;4885731;29;20207;-33
2023/05/19 11:57:00;;;;;;;4.83;3.60;;;;;;;19.69;52.24;97791.88;4884499;29;20243;-32
2023/05/19 11:59:30;;;;;;;7.13;3.60;;;;;;;19.71;52.34;97794.47;4891355;29;20240;-31
2023/05/19 12:02:26;;;;;;;4.73;3.53;;;;;;;19.70;52.79;97791.09;4880259;29;20290;-32
2023/05/19 12:04:53;;;;;;;7.10;3.83;;;;;;;19.71;52.63;97789.38;4884752;29;20219;-32
2023/05/19 12:07:23;;;;;;;6.40;3.30;;;;;;;19.71;52.72;97790.25;4881286;29;20227;-31
2023/05/19 12:09:50;;;;;;;6.37;3.57;;;;;;;19.74;52.56;97787.84;4884353;29;20207;-31
2023/05/19 12:12:20;;;;;;;8.03;3.57;;;;;;;19.75;52.84;97781.91;4880630;29;20634;-31
2023/05/19 12:14:50;;;;;;;4.60;3.67;;;;;;;19.77;52.90;97781.97;4878037;29;20215;-31
2023/05/19 12:17:18;;;;;;;6.37;3.80;;;;;;;19.75;52.89;97778.53;4887093;29;20258;-31
2023/05/19 12:19:47;;;;;;;8.07;3.70;;;;;;;19.79;53.31;97767.63;4885262;29;20210;-32
2023/05/19 12:22:14;;;;;;;5.63;3.50;;;;;;;19.82;53.33;97770.28;4882321;29;20206;-32
2023/05/19 12:24:41;;;;;;;6.53;3.30;;;;;;;19.83;53.31;97769.47;4883267;29;20229;-32
2023/05/19 12:27:25;;;;;;;4.90;3.43;;;;;;;19.84;53.29;97773.78;4884804;29;20322;-33
2023/05/19 12:29:53;;;;;;;8.17;3.57;;;;;;;19.85;53.30;97771.28;4879719;29;20211;-31
2023/05/19 12:32:27;;;;;;;5.30;3.37;;;;;;;19.87;53.34;97758.59;4892470;29;20207;-31
2023/05/19 12:34:55;;;;;;;4.10;3.33;;;;;;;19.89;53.56;97765.50;4884517;29;20293;-32
2023/05/19 12:37:21;;;;;;;6.00;3.60;;;;;;;19.90;53.38;97758.72;4884980;29;20231;-31
2023/05/19 12:39:49;;;;;;;8.27;3.60;;;;;;;19.89;53.58;97760.41;4873751;29;21235;-32
2023/05/19 12:42:15;;;;;;;6.63;3.70;;;;;;;19.92;53.73;97757.06;4883314;29;20290;-32
2023/05/19 12:44:49;;;;;;;6.63;3.73;;;;;;;19.94;53.62;97758.03;4889067;29;20346;-31
2023/05/19 12:47:16;;;;;;;7.33;3.90;;;;;;;19.95;53.54;97763.19;4889754;29;20253;-31
2023/05/19 12:49:55;;;;;;;5.10;3.13;;;;;;;19.97;53.54;97760.69;4889173;29;20249;-31
2023/05/19 12:52:22;;;;;;;7.33;4.07;;;;;;;19.98;53.64;97756.47;4880934;29;20666;-32
2023/05/19 12:54:51;;;;;;;5.70;3.53;;;;;;;19.98;53.73;97750.56;4890336;29;20206;-32
2023/05/19 12:57:19;;;;;;;5.70;3.67;;;;;;;19.96;53.61;97752.16;4893664;29;20222;-32
2023/05/19 12:59:47;;;;;;;6.13;3.50;;;;;;;20.00;53.64;97748.06;4889328;29;20239;-32
2023/05/19 13:02:13;;;;;;;4.80;3.70;;;;;;;20.01;53.41;97749.78;4893428;29;20210;-31
2023/05/19 13:04:40;;;;;;;7.23;3.67;;;;;;;20.02;53.54;97749.84;4879713;29;20254;-31
2023/05/19 13:07:07;;;;;;;6.33;3.27;;;;;;;19.99;53.94;97742.06;4888063;29;20230;-32
2023/05/19 13:09:35;;;;;;;7.30;3.43;;;;;;;20.04;53.71;97744.81;4888028;29;20973;-31
2023/05/19 13:12:03;;;;;;;6.07;3.77;;;;;;;20.05;53.73;97754.22;4888286;29;20215;-31
2023/05/19 13:14:30;;;;;;;5.93;3.60;;;;;;;20.05;53.26;97756.78;4889798;29;20290;-32
2023/05/19 13:16:56;;;;;;;5.60;3.83;;;;;;;20.02;53.53;97743.00;4888476;29;20263;-32
2023/05/19 13:19:23;;;;;;;10.37;3.63;;;;;;;20.05;53.55;97749.13;4880154;29;20290;-31
2023/05/19 13:21:51;;;;;;;11.90;4.07;;;;;;;20.05;53.47;97736.34;4886660;29;20218;-32
2023/05/19 13:24:18;;;;;;;5.27;3.70;;;;;;;20.06;53.32;97738.09;4891941;29;20227;-31
2023/05/19 13:26:44;;;;;;;7.77;3.63;;;;;;;20.04;53.85;97729.50;4887635;29;20217;-31
2023/05/19 13:29:11;;;;;;;10.83;3.60;;;;;;;20.07;53.73;97738.97;4887938;29;20211;-31
2023/05/19 13:31:38;;;;;;;5.83;3.77;;;;;;;20.06;53.51;97734.66;4886908;29;20207;-32
2023/05/19 13:34:04;;;;;;;7.90;3.60;;;;;;;20.07;53.50;97736.41;4879786;29;20226;-31
2023/05/19 13:36:35;;;;;;;6.57;3.70;;;;;;;20.00;53.67;97725.09;4885590;29;20619;-31
2023/05/19 13:39:02;;;;;;;5.47;3.40;;;;;;;20.07;53.65;97733.88;4890105;29;20248;-32
2023/05/19 13:41:28;;;;;;;7.30;3.80;;;;;;;20.06;54.11;97732.97;4891210;29;20258;-31
2023/05/19 13:43:57;;;;;;;8.07;3.47;;;;;;;20.04;53.91;97724.38;4887668;29;20397;-32
2023/05/19 13:46:25;;;;;;;9.77;3.77;;;;;;;20.08;54.18;97726.28;4886379;29;20215;-32
2023/05/19 13:49:09;;;;;;;7.33;3.83;;;;;;;20.02;54.03;97714.94;4882832;29;20265;-32
2023/05/19 13:51:36;;;;;;;7.00;3.30;;;;;;;20.08;54.15;97710.97;4885831;29;20203;-32
2023/05/19 13:54:03;;;;;;;7.77;3.70;;;;;;;20.08;54.16;97710.97;4882513;29;20199;-32
2023/05/19 13:56:30;;;;;;;5.00;3.40;;;;;;;20.10;53.85;97708.47;4881515;29;20203;-31
2023/05/19 13:58:57;;;;;;;4.13;3.10;;;;;;;20.10;53.70;97706.75;4879956;29;20410;-32
2023/05/19 14:01:23;;;;;;;7.60;3.83;;;;;;;20.13;53.85;97706.06;4886512;29;20206;-32
2023/05/19 14:03:51;;;;;;;7.83;3.47;;;;;;;20.10;53.96;97714.41;4883969;29;20310;-32
2023/05/19 14:06:17;;;;;;;5.83;3.50;;;;;;;20.13;54.58;97709.47;4890353;29;20203;-32
2023/05/19 14:08:44;;;;;;;9.47;4.17;;;;;;;20.16;55.25;97706.19;4880694;29;20223;-32
2023/05/19 14:11:18;;;;;;;9.00;3.93;;;;;;;20.17;54.96;97706.25;4882717;29;20203;-32
2023/05/19 14:13:52;;;;;;;8.60;4.03;;;;;;;20.18;55.63;97696.88;4876723;29;20199;-32
2023/05/19 14:16:20;;;;;;;10.63;3.80;;;;;;;20.14;54.79;97706.13;4879670;29;20210;-32
2023/05/19 14:18:48;;;;;;;8.03;3.70;;;;;;;20.24;54.47;97697.09;4886567;29;20226;-32
2023/05/19 14:21:14;;;;;;;8.40;3.80;;;;;;;20.25;54.02;97689.50;4881787;29;20211;-32
2023/05/19 14:23:41;;;;;;;11.00;3.60;;;;;;;20.25;54.00;97692.06;4888654;29;20714;-32
2023/05/19 14:26:07;;;;;;;5.40;3.23;;;;;;;20.28;53.71;97692.16;4871754;29;20674;-32
2023/05/19 14:28:34;;;;;;;8.33;3.87;;;;;;;20.30;53.71;97684.56;4882054;29;20226;-32
2023/05/19 14:31:01;;;;;;;8.43;3.43;;;;;;;20.30;53.63;97680.34;4878999;29;20203;-32
2023/05/19 14:33:27;;;;;;;6.40;3.23;;;;;;;20.30;53.51;97685.44;4881883;29;20203;-32
2023/05/19 14:36:00;;;;;;;5.90;3.20;;;;;;;20.32;53.58;97672.75;4885698;29;20727;-32
2023/05/19 14:38:27;;;;;;;5.13;3.47;;;;;;;20.32;53.73;97683.84;4882461;29;20231;-32
2023/05/19 14:40:55;;;;;;;6.87;3.43;;;;;;;20.31;53.77;97682.06;4878486;29;20211;-32
2023/05/19 14:43:21;;;;;;;4.00;3.30;;;;;;;20.32;53.75;97678.72;4888920;29;20238;-32
2023/05/19 14:45:48;;;;;;;7.23;3.03;;;;;;;20.32;53.76;97683.84;4891454;29;20663;-32
2023/05/19 14:48:15;;;;;;;6.00;3.47;;;;;;;20.32;53.41;97685.50;4878591;29;20230;-32
2023/05/19 14:50:41;;;;;;;5.10;3.30;;;;;;;20.26;54.10;97673.41;4878809;29;20615;-32
2023/05/19 14:53:08;;;;;;;5.37;3.23;;;;;;;20.30;53.55;97679.47;4878797;29;20616;-33
2023/05/19 14:55:35;;;;;;;5.37;3.20;;;;;;;20.29;53.42;97677.72;4884758;29;20624;-32
2023/05/19 14:58:01;;;;;;;5.60;3.30;;;;;;;20.29;53.59;97680.28;4879318;29;20231;-31
2023/05/19 15:00:35;;;;;;;7.23;3.20;;;;;;;20.30;53.91;97676.91;4882986;29;20207;-32
2023/05/19 15:03:02;;;;;;;4.67;3.30;;;;;;;20.29;54.28;97672.63;4886292;29;21359;-32
2023/05/19 15:05:28;;;;;;;6.47;3.30;;;;;;;20.27;54.07;97669.16;4890847;29;20218;-32
2023/05/19 15:07:55;;;;;;;4.70;3.27;;;;;;;20.29;54.04;97670.97;4885700;29;20748;-32
2023/05/19 15:10:23;;;;;;;4.03;3.20;;;;;;;20.29;53.89;97672.63;4881937;29;20207;-31
2023/05/19 15:12:49;;;;;;;7.87;3.23;;;;;;;20.25;54.11;97676.75;4882958;29;20211;-32
2023/05/19 15:15:16;;;;;;;6.07;3.17;;;;;;;20.29;54.38;97677.72;4878842;29;20202;-31
2023/05/19 15:17:44;;;;;;;5.07;3.30;;;;;;;20.29;54.28;97681.16;4884557;29;20229;-32
2023/05/19 15:20:11;;;;;;;8.93;3.50;;;;;;;20.30;54.41;97672.69;4878695;29;20203;-32
2023/05/19 15:22:38;;;;;;;4.17;2.77;;;;;;;20.30;54.34;97675.25;4878369;29;20199;-32
2023/05/19 15:25:05;;;;;;;6.37;2.90;;;;;;;20.29;54.30;97660.75;4878190;29;20286;-32
2023/05/19 15:27:34;;;;;;;4.17;2.77;;;;;;;20.28;54.32;97659.00;4877926;29;20261;-32
2023/05/19 15:30:04;;;;;;;3.37;2.70;;;;;;;20.29;54.40;97657.31;4890799;29;20202;-32
2023/05/19 15:32:30;;;;;;;5.60;2.93;;;;;;;20.27;53.98;97654.72;4882252;29;20214;-32